Time;durP1;ratioP1;P1;durP2;ratioP2;P2;SDS_P1;SDS_P2;PMS_P1;PMS_P2;Temp;Humidity;BMP_temperature;BMP_pressure;BME280_temperature;BME280_humidity;BME280_pressure;Samples;Min_cycle;Max_cycle;Signal;HPM_P1;HPM_P2
2023/05/29 00:00:17;;;;;;;;;;;;;;;27.35;24.33;98347.72;5071307;28;19951;-84
2023/05/29 00:02:44;;;;;;;;;;;;;;;27.45;23.79;98345.06;5066014;28;19928;-84
2023/05/29 00:05:12;;;;;;;;;;;;;;;27.48;23.56;98336.50;5065572;28;19921;-85
2023/05/29 00:07:39;;;;;;;;;;;;;;;27.49;23.94;98349.38;5066537;28;20367;-85
2023/05/29 00:10:05;;;;;;;;;;;;;;;27.52;23.71;98342.00;5070118;28;19921;-85
2023/05/29 00:12:31;;;;;;;;;;;;;;;26.99;23.96;98347.22;5068097;28;20380;-85
2023/05/29 00:14:57;;;;;;;;;;;;;;;26.74;24.34;98347.13;5069347;28;20854;-85
2023/05/29 00:17:24;;;;;;;;;;;;;;;26.96;24.11;98347.31;5069452;28;19940;-85
2023/05/29 00:19:50;;;;;;;;;;;;;;;27.04;24.08;98340.25;5065155;28;19973;-85
2023/05/29 00:22:16;;;;;;;;;;;;;;;27.13;23.80;98335.53;5065426;28;19920;-85
2023/05/29 00:24:42;;;;;;;;;;;;;;;27.04;24.20;98329.78;5072321;28;19920;-85
2023/05/29 00:27:08;;;;;;;;;;;;;;;27.10;23.86;98333.59;5062039;28;19927;-85
2023/05/29 00:29:35;;;;;;;;;;;;;;;27.20;24.16;98329.69;5073340;28;19924;-85
2023/05/29 00:32:02;;;;;;;;;;;;;;;27.01;24.17;98325.03;5072691;28;19955;-85
2023/05/29 00:34:28;;;;;;;;;;;;;;;27.01;24.24;98321.41;5083560;28;19929;-85
2023/05/29 00:36:56;;;;;;;;;;;;;;;27.02;24.14;98328.63;5070821;28;20380;-85
2023/05/29 00:39:22;;;;;;;;;;;;;;;27.12;23.93;98330.34;5066942;28;19963;-85
2023/05/29 00:41:51;;;;;;;;;;;;;;;27.11;23.97;98325.94;5072473;28;20287;-85
2023/05/29 00:44:18;;;;;;;;;;;;;;;27.21;24.13;98328.44;5065556;28;19943;-85
2023/05/29 00:46:45;;;;;;;;;;;;;;;27.21;24.03;98334.06;5071388;28;19924;-85
2023/05/29 00:49:11;;;;;;;;;;;;;;;26.95;24.20;98323.22;5071433;28;19924;-85
2023/05/29 00:51:38;;;;;;;;;;;;;;;27.00;24.15;98320.63;5069103;28;19920;-84
2023/05/29 00:54:06;;;;;;;;;;;;;;;27.12;23.56;98327.53;5069057;28;19924;-84
2023/05/29 00:56:34;;;;;;;;;;;;;;;27.08;23.79;98326.84;5064390;28;20273;-84
2023/05/29 00:59:00;;;;;;;;;;;;;;;27.05;23.72;98327.75;5071074;28;19925;-84
2023/05/29 01:01:27;;;;;;;;;;;;;;;27.06;23.87;98324.47;5068324;28;19932;-84
2023/05/29 01:03:57;;;;;;;;;;;;;;;26.95;24.31;98320.41;5070560;28;19924;-84
2023/05/29 01:06:23;;;;;;;;;;;;;;;26.96;24.30;98321.97;5067142;28;19938;-83
2023/05/29 01:08:49;;;;;;;;;;;;;;;26.95;24.15;98324.00;5070936;28;19917;-84
2023/05/29 01:11:17;;;;;;;;;;;;;;;26.84;24.21;98325.56;5071432;28;19921;-83
2023/05/29 01:13:45;;;;;;;;;;;;;;;26.84;23.94;98319.94;5068993;28;19916;-84
2023/05/29 01:16:35;;;;;;;;;;;;;;;26.96;23.95;98316.31;5071042;28;19926;-84
2023/05/29 01:19:09;;;;;;;;;;;;;;;26.97;23.68;98317.91;5067297;28;19929;-84
2023/05/29 01:21:35;;;;;;;;;;;;;;;26.59;24.03;98321.41;5068624;28;19924;-84
2023/05/29 01:24:16;;;;;;;;;;;;;;;26.71;24.08;98317.03;5068520;28;19927;-83
2023/05/29 01:26:51;;;;;;;;;;;;;;;26.58;24.63;98327.47;5071966;28;19916;-84
2023/05/29 01:29:25;;;;;;;;;;;;;;;26.57;24.95;98323.06;5064878;28;19993;-84
2023/05/29 01:31:53;;;;;;;;;;;;;;;26.50;24.50;98323.28;5069145;28;19920;-84
2023/05/29 01:34:19;;;;;;;;;;;;;;;26.55;24.16;98323.53;5068617;28;20342;-84
2023/05/29 01:36:46;;;;;;;;;;;;;;;26.52;24.41;98320.78;5067887;28;20157;-84
2023/05/29 01:39:12;;;;;;;;;;;;;;;26.62;24.15;98317.69;5070957;28;19974;-84
2023/05/29 01:41:39;;;;;;;;;;;;;;;26.73;24.40;98317.38;5072466;28;19920;-84
2023/05/29 01:44:08;;;;;;;;;;;;;;;26.78;24.32;98316.06;5071504;28;19924;-84
2023/05/29 01:46:35;;;;;;;;;;;;;;;26.84;23.79;98317.13;5062617;28;19920;-84
2023/05/29 01:49:02;;;;;;;;;;;;;;;26.84;23.26;98312.25;5068355;28;19956;-85
2023/05/29 01:51:28;;;;;;;;;;;;;;;26.77;23.50;98318.09;5071243;28;19965;-84
2023/05/29 01:53:54;;;;;;;;;;;;;;;26.50;24.16;98314.81;5065827;28;19966;-84
2023/05/29 01:56:21;;;;;;;;;;;;;;;26.59;24.37;98310.13;5061419;28;19927;-85
2023/05/29 01:58:47;;;;;;;;;;;;;;;26.59;24.14;98310.13;5073661;28;19920;-85
2023/05/29 02:01:13;;;;;;;;;;;;;;;26.47;24.36;98313.69;5069428;28;20447;-85
2023/05/29 02:03:39;;;;;;;;;;;;;;;26.51;24.29;98311.56;5065666;28;20012;-86
2023/05/29 02:06:06;;;;;;;;;;;;;;;26.56;24.08;98308.19;5068194;28;19924;-85
2023/05/29 02:08:32;;;;;;;;;;;;;;;26.64;24.19;98309.59;5068020;28;19920;-84
2023/05/29 02:10:58;;;;;;;;;;;;;;;26.57;24.14;98306.97;5068579;28;19928;-85
2023/05/29 02:13:24;;;;;;;;;;;;;;;26.64;24.05;98306.78;5069069;28;20006;-85
2023/05/29 02:15:50;;;;;;;;;;;;;;;26.75;24.62;98306.47;5069090;28;19920;-84
2023/05/29 02:18:20;;;;;;;;;;;;;;;26.84;24.01;98311.47;5064244;28;20007;-85
2023/05/29 02:20:46;;;;;;;;;;;;;;;26.71;24.06;98303.75;5063945;28;20290;-85
2023/05/29 02:23:12;;;;;;;;;;;;;;;26.54;23.95;98304.25;5067699;28;19929;-85
2023/05/29 02:25:38;;;;;;;;;;;;;;;26.57;24.43;98306.97;5071225;28;20405;-85
2023/05/29 02:28:04;;;;;;;;;;;;;;;26.66;24.06;98297.88;5064238;28;19932;-85
2023/05/29 02:30:30;;;;;;;;;;;;;;;26.55;24.47;98301.00;5063860;28;19987;-84
2023/05/29 02:32:56;;;;;;;;;;;;;;;26.53;24.33;98291.41;5063973;28;19981;-84
2023/05/29 02:35:23;;;;;;;;;;;;;;;26.55;24.10;98298.19;5069715;28;19920;-84
2023/05/29 02:37:49;;;;;;;;;;;;;;;26.21;24.35;98292.28;5069573;28;20037;-83
2023/05/29 02:40:16;;;;;;;;;;;;;;;26.07;24.13;98296.25;5068307;28;19959;-83
2023/05/29 02:42:42;;;;;;;;;;;;;;;26.26;24.11;98297.38;5070065;28;19950;-85
2023/05/29 02:45:08;;;;;;;;;;;;;;;26.37;23.84;98288.66;5068552;28;19948;-85
2023/05/29 02:47:35;;;;;;;;;;;;;;;26.56;23.96;98296.13;5068172;28;19921;-85
2023/05/29 02:50:02;;;;;;;;;;;;;;;26.65;23.79;98297.06;5068517;28;19920;-85
2023/05/29 02:52:28;;;;;;;;;;;;;;;26.76;23.53;98299.63;5067391;28;19921;-84
2023/05/29 02:54:55;;;;;;;;;;;;;;;26.38;23.78;98293.03;5066888;28;19920;-85
2023/05/29 02:57:22;;;;;;;;;;;;;;;26.02;24.76;98296.78;5070207;28;19969;-85
2023/05/29 02:59:48;;;;;;;;;;;;;;;26.19;24.26;98286.31;5067408;28;19925;-85
2023/05/29 03:02:14;;;;;;;;;;;;;;;26.35;24.00;98288.31;5069260;28;20047;-85
2023/05/29 03:04:40;;;;;;;;;;;;;;;26.51;23.87;98294.66;5068129;28;20778;-85
2023/05/29 03:07:09;;;;;;;;;;;;;;;26.67;23.85;98293.81;5065407;28;20015;-85
2023/05/29 03:09:35;;;;;;;;;;;;;;;26.46;23.86;98294.44;5068702;28;20015;-85
2023/05/29 03:12:01;;;;;;;;;;;;;;;26.20;24.21;98292.75;5064129;28;19920;-85
2023/05/29 03:14:27;;;;;;;;;;;;;;;26.30;24.02;98292.44;5069324;28;19925;-85
2023/05/29 03:16:53;;;;;;;;;;;;;;;26.57;23.75;98292.09;5066635;28;19924;-85
2023/05/29 03:19:19;;;;;;;;;;;;;;;26.76;23.67;98301.63;5064061;28;20402;-86
2023/05/29 03:21:46;;;;;;;;;;;;;;;26.64;23.97;98301.13;5064445;28;20379;-85
2023/05/29 03:24:13;;;;;;;;;;;;;;;26.35;24.55;98300.34;5067623;28;19920;-85
2023/05/29 03:26:39;;;;;;;;;;;;;;;26.37;24.70;98295.06;5063118;28;20022;-86
2023/05/29 03:29:05;;;;;;;;;;;;;;;26.56;24.21;98302.56;5069045;28;19923;-83
2023/05/29 03:31:31;;;;;;;;;;;;;;;26.55;24.22;98294.56;5068040;28;19926;-85
2023/05/29 03:33:58;;;;;;;;;;;;;;;26.51;24.24;98296.72;5068057;28;19921;-83
2023/05/29 03:36:24;;;;;;;;;;;;;;;26.57;24.42;98304.16;5067471;28;19947;-84
2023/05/29 03:38:50;;;;;;;;;;;;;;;26.73;23.90;98300.47;5066582;28;19921;-84
2023/05/29 03:41:16;;;;;;;;;;;;;;;26.59;23.98;98300.88;5068081;28;19920;-84
2023/05/29 03:43:42;;;;;;;;;;;;;;;26.55;24.15;98300.19;5067001;28;19946;-84
2023/05/29 03:46:08;;;;;;;;;;;;;;;26.63;24.37;98302.34;5070882;28;19921;-84
2023/05/29 03:48:34;;;;;;;;;;;;;;;26.66;24.62;98297.88;5073400;28;19917;-84
2023/05/29 03:51:00;;;;;;;;;;;;;;;26.72;24.54;98298.91;5067687;28;20372;-83
2023/05/29 03:53:26;;;;;;;;;;;;;;;26.98;24.26;98296.97;5069467;28;19978;-84
2023/05/29 03:55:52;;;;;;;;;;;;;;;27.04;24.51;98300.78;5066137;28;19927;-84
2023/05/29 03:58:18;;;;;;;;;;;;;;;27.24;24.13;98292.91;5063872;28;19921;-84
2023/05/29 04:00:44;;;;;;;;;;;;;;;27.42;24.25;98293.19;5062867;28;20395;-84
2023/05/29 04:03:11;;;;;;;;;;;;;;;27.52;24.36;98296.88;5065781;28;19931;-84
2023/05/29 04:05:37;;;;;;;;;;;;;;;27.70;24.51;98303.50;5064612;28;19927;-84
2023/05/29 04:08:04;;;;;;;;;;;;;;;27.97;24.25;98303.81;5065782;28;19962;-84
2023/05/29 04:10:33;;;;;;;;;;;;;;;27.60;24.53;98304.69;5065699;28;20355;-85
2023/05/29 04:13:00;;;;;;;;;;;;;;;27.36;25.10;98303.41;5063047;28;19967;-86
2023/05/29 04:15:30;;;;;;;;;;;;;;;27.42;25.19;98310.09;5064130;28;20002;-85
2023/05/29 04:17:56;;;;;;;;;;;;;;;27.48;25.51;98310.31;5064146;28;19928;-84
2023/05/29 04:20:22;;;;;;;;;;;;;;;27.71;25.43;98307.94;5062921;28;19921;-85
2023/05/29 04:22:49;;;;;;;;;;;;;;;27.92;25.51;98312.84;5063448;28;19921;-82
2023/05/29 04:25:15;;;;;;;;;;;;;;;28.20;25.46;98307.50;5064317;28;19967;-82
2023/05/29 04:27:41;;;;;;;;;;;;;;;28.26;25.31;98305.69;5067935;28;19928;-84
2023/05/29 04:30:08;;;;;;;;;;;;;;;28.26;25.29;98306.47;5065497;28;19925;-83
2023/05/29 04:32:34;;;;;;;;;;;;;;;28.42;25.63;98311.16;5068676;28;20299;-83
2023/05/29 04:35:02;;;;;;;;;;;;;;;28.54;25.75;98311.09;5068041;28;19936;-83
2023/05/29 04:37:28;;;;;;;;;;;;;;;28.63;25.75;98311.22;5065125;28;19935;-83
2023/05/29 04:39:57;;;;;;;;;;;;;;;28.72;25.91;98308.44;5076279;28;19955;-83
2023/05/29 04:42:24;;;;;;;;;;;;;;;28.82;26.01;98302.84;5066154;28;19916;-84
2023/05/29 04:44:52;;;;;;;;;;;;;;;28.77;25.63;98301.41;5074515;28;19943;-85
2023/05/29 04:47:18;;;;;;;;;;;;;;;28.63;26.00;98308.38;5075934;28;19920;-86
2023/05/29 04:49:49;;;;;;;;;;;;;;;28.81;25.81;98316.19;5062129;28;19920;-84
2023/05/29 04:52:15;;;;;;;;;;;;;;;28.90;26.06;98318.28;5059889;28;19935;-85
2023/05/29 04:54:41;;;;;;;;;;;;;;;29.09;25.39;98319.97;5066421;28;19968;-84
2023/05/29 04:57:08;;;;;;;;;;;;;;;29.28;25.65;98316.03;5067953;28;19979;-84
2023/05/29 04:59:34;;;;;;;;;;;;;;;29.34;26.26;98326.28;5072976;28;20376;-84
2023/05/29 05:02:00;;;;;;;;;;;;;;;29.58;26.18;98320.09;5073532;28;19928;-84
2023/05/29 05:04:26;;;;;;;;;;;;;;;29.83;25.60;98317.03;5074649;28;20011;-84
2023/05/29 05:06:53;;;;;;;;;;;;;;;29.79;25.20;98317.19;5064280;28;19948;-84
2023/05/29 05:09:19;;;;;;;;;;;;;;;29.73;25.52;98316.22;5055043;28;20008;-84
2023/05/29 05:11:45;;;;;;;;;;;;;;;29.92;25.08;98311.44;5056050;28;19955;-84
2023/05/29 05:14:11;;;;;;;;;;;;;;;29.98;25.76;98301.84;5053263;28;19917;-84
2023/05/29 05:16:37;;;;;;;;;;;;;;;30.50;25.24;98308.53;5054594;28;19923;-84
2023/05/29 05:19:03;;;;;;;;;;;;;;;30.55;23.96;98308.66;5073692;28;20291;-84
2023/05/29 05:21:31;;;;;;;;;;;;;;;30.51;24.41;98310.06;5075833;28;19920;-84
2023/05/29 05:23:57;;;;;;;;;;;;;;;30.56;25.01;98307.41;5075934;28;19961;-84
2023/05/29 05:26:23;;;;;;;;;;;;;;;30.97;24.24;98305.19;5073337;28;20007;-84
2023/05/29 05:28:49;;;;;;;;;;;;;;;31.22;23.85;98304.81;5057729;28;19924;-84
2023/05/29 05:31:15;;;;;;;;;;;;;;;30.86;24.91;98302.00;5055702;28;19921;-84
2023/05/29 05:33:41;;;;;;;;;;;;;;;30.54;25.49;98304.28;5055601;28;20307;-84
2023/05/29 05:36:07;;;;;;;;;;;;;;;30.86;24.65;98314.16;5070921;28;20007;-84
2023/05/29 05:38:34;;;;;;;;;;;;;;;30.74;24.19;98306.59;5055742;28;19924;-84
2023/05/29 05:41:00;;;;;;;;;;;;;;;30.70;26.04;98317.31;5055622;28;19920;-83
2023/05/29 05:43:27;;;;;;;;;;;;;;;31.26;23.84;98313.94;5070684;28;19955;-83
2023/05/29 05:45:53;;;;;;;;;;;;;;;31.49;25.14;98307.56;5056033;28;19924;-83
2023/05/29 05:48:19;;;;;;;;;;;;;;;31.85;23.85;98309.44;5055724;28;19913;-83
2023/05/29 05:50:45;;;;;;;;;;;;;;;31.78;23.76;98315.47;5074935;28;20383;-83
2023/05/29 05:53:11;;;;;;;;;;;;;;;31.69;23.14;98318.38;5075136;28;19959;-83
2023/05/29 05:55:37;;;;;;;;;;;;;;;31.62;23.48;98315.88;5075121;28;19935;-84
2023/05/29 05:58:03;;;;;;;;;;;;;;;31.45;24.94;98321.16;5074968;28;19959;-84
2023/05/29 06:00:29;;;;;;;;;;;;;;;31.84;22.92;98316.38;5074975;28;20015;-84
2023/05/29 06:02:55;;;;;;;;;;;;;;;31.75;22.16;98322.09;5056627;28;19925;-83
2023/05/29 06:05:24;;;;;;;;;;;;;;;31.21;23.11;98320.25;5060063;28;19916;-83
2023/05/29 06:07:50;;;;;;;;;;;;;;;31.20;23.37;98319.44;5055739;28;19917;-83
2023/05/29 06:10:17;;;;;;;;;;;;;;;31.37;23.12;98328.38;5069120;28;20394;-83
2023/05/29 06:12:43;;;;;;;;;;;;;;;31.78;23.43;98315.47;5074839;28;19924;-83
2023/05/29 06:15:09;;;;;;;;;;;;;;;32.16;23.66;98317.66;5074721;28;19917;-83
2023/05/29 06:17:35;;;;;;;;;;;;;;;32.59;22.53;98322.69;5073455;28;19943;-84
2023/05/29 06:20:01;;;;;;;;;;;;;;;32.83;22.84;98312.06;5055246;28;20303;-84
2023/05/29 06:22:27;;;;;;;;;;;;;;;33.15;22.30;98324.56;5054455;28;20389;-84
2023/05/29 06:24:53;;;;;;;;;;;;;;;33.39;22.88;98333.78;5054616;28;20020;-84
2023/05/29 06:27:19;;;;;;;;;;;;;;;33.73;21.54;98333.06;5054632;28;20023;-84
2023/05/29 06:29:45;;;;;;;;;;;;;;;33.46;21.69;98330.53;5069987;28;19927;-84
2023/05/29 06:32:11;;;;;;;;;;;;;;;33.36;22.77;98335.56;5074385;28;19925;-84
2023/05/29 06:34:37;;;;;;;;;;;;;;;33.69;22.07;98331.72;5074368;28;19920;-84
2023/05/29 06:37:04;;;;;;;;;;;;;;;33.90;22.23;98339.03;5060653;28;20019;-84
2023/05/29 06:39:30;;;;;;;;;;;;;;;33.35;22.50;98345.34;5074206;28;19951;-84
2023/05/29 06:41:56;;;;;;;;;;;;;;;33.52;22.35;98344.84;5074513;28;19920;-84
2023/05/29 06:44:22;;;;;;;;;;;;;;;33.92;21.87;98342.16;5074288;28;19924;-84
2023/05/29 06:46:48;;;;;;;;;;;;;;;33.84;23.20;98356.03;5074071;28;20324;-84
2023/05/29 06:49:14;;;;;;;;;;;;;;;34.01;21.83;98356.28;5074228;28;19970;-84
2023/05/29 06:51:40;;;;;;;;;;;;;;;33.54;22.67;98359.44;5073866;28;19943;-84
2023/05/29 06:54:06;;;;;;;;;;;;;;;33.85;22.83;98363.31;5073598;28;20318;-84
2023/05/29 06:56:32;;;;;;;;;;;;;;;34.11;22.25;98360.59;5066807;28;19920;-84
2023/05/29 06:58:58;;;;;;;;;;;;;;;34.24;22.91;98363.88;5053910;28;19920;-84
2023/05/29 07:01:24;;;;;;;;;;;;;;;34.30;22.19;98359.06;5053120;28;20380;-84
2023/05/29 07:03:53;;;;;;;;;;;;;;;33.89;21.65;98365.94;5052659;28;19921;-84
2023/05/29 07:06:20;;;;;;;;;;;;;;;33.78;22.50;98362.91;5053799;28;20028;-84
2023/05/29 07:08:46;;;;;;;;;;;;;;;32.91;22.95;98361.59;5054428;28;19923;-84
2023/05/29 07:11:12;;;;;;;;;;;;;;;32.32;23.49;98365.53;5053800;28;19917;-84
2023/05/29 07:13:38;;;;;;;;;;;;;;;32.74;22.81;98363.34;5053906;28;20375;-84
2023/05/29 07:16:04;;;;;;;;;;;;;;;32.12;23.58;98368.97;5053849;28;19917;-84
2023/05/29 07:18:30;;;;;;;;;;;;;;;31.45;24.15;98369.41;5053948;28;20019;-84
2023/05/29 07:20:56;;;;;;;;;;;;;;;32.17;23.78;98370.34;5061719;28;20395;-84
2023/05/29 07:23:23;;;;;;;;;;;;;;;32.76;23.98;98366.50;5072651;28;19924;-84
2023/05/29 07:25:49;;;;;;;;;;;;;;;31.06;26.43;98379.72;5072217;28;19916;-84
2023/05/29 07:28:15;;;;;;;;;;;;;;;31.75;24.64;98374.00;5073988;28;19917;-84
2023/05/29 07:30:41;;;;;;;;;;;;;;;33.04;23.46;98372.75;5073603;28;19923;-84
2023/05/29 07:33:07;;;;;;;;;;;;;;;33.95;22.80;98378.22;5072190;28;19924;-84
2023/05/29 07:35:33;;;;;;;;;;;;;;;32.43;22.86;98377.13;5073208;28;19916;-84
2023/05/29 07:38:00;;;;;;;;;;;;;;;31.63;24.50;98382.72;5069169;28;19943;-83
2023/05/29 07:40:26;;;;;;;;;;;;;;;31.48;24.22;98376.97;5073752;28;19982;-84
2023/05/29 07:42:52;;;;;;;;;;;;;;;31.83;23.36;98383.78;5071907;28;19916;-84
2023/05/29 07:45:18;;;;;;;;;;;;;;;32.57;23.53;98377.22;5053662;28;19923;-84
2023/05/29 07:47:44;;;;;;;;;;;;;;;33.19;22.33;98380.00;5055269;28;20295;-83
2023/05/29 07:50:11;;;;;;;;;;;;;;;32.59;24.27;98377.53;5069190;28;20407;-84
2023/05/29 07:52:37;;;;;;;;;;;;;;;32.02;23.34;98388.09;5073620;28;19923;-84
2023/05/29 07:55:03;;;;;;;;;;;;;;;32.75;24.27;98381.97;5073681;28;20339;-84
2023/05/29 07:57:30;;;;;;;;;;;;;;;33.59;22.43;98373.75;5058327;28;19971;-84
2023/05/29 07:59:56;;;;;;;;;;;;;;;32.45;22.55;98385.97;5054402;28;20379;-84
2023/05/29 08:02:22;;;;;;;;;;;;;;;31.75;24.04;98382.53;5053372;28;19970;-84
2023/05/29 08:04:48;;;;;;;;;;;;;;;31.58;26.32;98384.16;5052742;28;20008;-84
2023/05/29 08:07:15;;;;;;;;;;;;;;;32.37;25.09;98384.78;5053354;28;20002;-84
2023/05/29 08:09:40;;;;;;;;;;;;;;;31.16;25.33;98378.41;5053179;28;20427;-84
2023/05/29 08:12:07;;;;;;;;;;;;;;;31.81;24.99;98383.44;5053733;28;20012;-84
2023/05/29 08:14:33;;;;;;;;;;;;;;;31.42;24.94;98376.81;5057338;28;20006;-84
2023/05/29 08:16:59;;;;;;;;;;;;;;;31.82;24.18;98379.34;5074952;28;19947;-84
2023/05/29 08:19:25;;;;;;;;;;;;;;;30.70;27.81;98377.66;5057100;28;19986;-84
2023/05/29 08:21:51;;;;;;;;;;;;;;;30.96;25.90;98380.19;5056847;28;20287;-84
2023/05/29 08:24:17;;;;;;;;;;;;;;;30.46;26.59;98382.34;5063217;28;19916;-84
2023/05/29 08:26:43;;;;;;;;;;;;;;;31.11;24.17;98381.13;5077189;28;19920;-84
2023/05/29 08:29:09;;;;;;;;;;;;;;;32.78;24.12;98377.38;5076985;28;20007;-84
2023/05/29 08:31:35;;;;;;;;;;;;;;;32.90;23.90;98382.81;5061495;28;19958;-84
2023/05/29 08:34:01;;;;;;;;;;;;;;;32.67;23.32;98378.69;5057083;28;19952;-84
2023/05/29 08:36:27;;;;;;;;;;;;;;;33.61;22.29;98376.13;5056982;28;19917;-84
2023/05/29 08:38:53;;;;;;;;;;;;;;;32.33;25.62;98387.78;5056692;28;19959;-84
2023/05/29 08:41:32;;;;;;;;;;;;;;;33.21;23.03;98379.53;5056604;28;19917;-84
2023/05/29 08:43:59;;;;;;;;;;;;;;;33.36;22.44;98374.63;5056412;28;19917;-84
2023/05/29 08:46:26;;;;;;;;;;;;;;;33.01;22.88;98385.88;5056892;28;19921;-84
2023/05/29 08:48:54;;;;;;;;;;;;;;;32.64;22.63;98385.38;5056390;28;19917;-84
2023/05/29 08:51:23;;;;;;;;;;;;;;;31.02;24.93;98390.41;5057026;28;19956;-84
2023/05/29 08:53:51;;;;;;;;;;;;;;;29.74;26.71;98387.75;5056394;28;19924;-84
2023/05/29 08:56:17;;;;;;;;;;;;;;;31.37;24.57;98383.09;5056103;28;20352;-84
2023/05/29 08:58:43;;;;;;;;;;;;;;;32.73;22.09;98384.50;5056323;28;19917;-84
2023/05/29 09:01:10;;;;;;;;;;;;;;;33.08;21.71;98381.88;5055015;28;20034;-84
2023/05/29 09:03:37;;;;;;;;;;;;;;;32.73;24.68;98382.47;5055819;28;20024;-84
2023/05/29 09:06:04;;;;;;;;;;;;;;;32.33;24.65;98396.31;5056553;28;19921;-84
2023/05/29 09:08:30;;;;;;;;;;;;;;;32.74;23.14;98384.03;5059384;28;20376;-84
2023/05/29 09:10:57;;;;;;;;;;;;;;;32.95;22.44;98378.50;5056086;28;19988;-84
2023/05/29 09:13:23;;;;;;;;;;;;;;;32.01;23.00;98377.25;5056095;28;20364;-84
2023/05/29 09:15:49;;;;;;;;;;;;;;;31.28;23.98;98379.50;5055964;28;19982;-84
2023/05/29 09:18:17;;;;;;;;;;;;;;;31.41;23.25;98383.72;5056128;28;19921;-84
2023/05/29 09:20:43;;;;;;;;;;;;;;;32.89;23.12;98372.69;5056162;28;20008;-84
2023/05/29 09:23:09;;;;;;;;;;;;;;;32.95;21.60;98367.91;5055181;28;19928;-84
2023/05/29 09:25:40;;;;;;;;;;;;;;;31.81;23.56;98374.16;5055630;28;19924;-84
2023/05/29 09:28:07;;;;;;;;;;;;;;;33.20;20.64;98364.50;5055767;28;19921;-84
2023/05/29 09:30:37;;;;;;;;;;;;;;;32.70;21.37;98365.56;5062752;28;19940;-84
2023/05/29 09:33:04;;;;;;;;;;;;;;;31.76;24.77;98369.91;5075328;28;19924;-84
2023/05/29 09:35:34;;;;;;;;;;;;;;;31.73;23.37;98370.06;5075666;28;19917;-84
2023/05/29 09:38:00;;;;;;;;;;;;;;;30.44;22.99;98370.69;5075073;28;19925;-84
2023/05/29 09:40:29;;;;;;;;;;;;;;;32.26;24.91;98368.25;5075507;28;19973;-84
2023/05/29 09:42:55;;;;;;;;;;;;;;;33.02;21.12;98359.00;5065003;28;19970;-84
2023/05/29 09:45:21;;;;;;;;;;;;;;;33.29;21.64;98361.56;5055224;28;19964;-84
2023/05/29 09:47:48;;;;;;;;;;;;;;;32.16;22.85;98360.28;5071230;28;20012;-84
2023/05/29 09:50:23;;;;;;;;;;;;;;;30.92;24.48;98362.53;5055469;28;19921;-85
2023/05/29 09:52:52;;;;;;;;;;;;;;;33.00;21.97;98363.59;5055404;28;19952;-84
2023/05/29 09:55:21;;;;;;;;;;;;;;;33.69;23.49;98360.19;5055402;28;19916;-84
2023/05/29 09:57:50;;;;;;;;;;;;;;;32.14;25.56;98366.41;5054989;28;19930;-84
2023/05/29 10:00:17;;;;;;;;;;;;;;;33.03;22.14;98363.41;5055593;28;19967;-84
2023/05/29 10:02:43;;;;;;;;;;;;;;;32.68;21.17;98365.28;5053887;28;19932;-84
2023/05/29 10:05:11;;;;;;;;;;;;;;;32.40;21.71;98376.03;5055118;28;19968;-85
2023/05/29 10:07:42;;;;;;;;;;;;;;;33.38;21.80;98367.16;5055132;28;19916;-84
2023/05/29 10:10:09;;;;;;;;;;;;;;;34.09;20.94;98363.19;5055690;28;20003;-84
2023/05/29 10:12:36;;;;;;;;;;;;;;;32.14;23.84;98368.50;5055070;28;19917;-86
2023/05/29 10:15:05;;;;;;;;;;;;;;;32.66;20.71;98359.28;5054635;28;19955;-84
2023/05/29 10:17:35;;;;;;;;;;;;;;;32.51;21.99;98367.78;5055831;28;20384;-84
2023/05/29 10:20:06;;;;;;;;;;;;;;;32.71;22.37;98362.25;5054937;28;19918;-85
2023/05/29 10:22:32;;;;;;;;;;;;;;;33.62;21.24;98361.38;5054687;28;20015;-84
2023/05/29 10:24:58;;;;;;;;;;;;;;;33.71;21.29;98366.19;5057384;28;20372;-85
2023/05/29 10:27:24;;;;;;;;;;;;;;;34.20;20.37;98357.63;5074533;28;19916;-84
2023/05/29 10:30:02;;;;;;;;;;;;;;;34.78;19.46;98352.94;5074282;28;19917;-84
2023/05/29 10:32:57;;;;;;;;;;;;;;;32.96;22.22;98357.28;5074398;28;20302;-85
2023/05/29 10:35:52;;;;;;;;;;;;;;;33.33;20.59;98358.50;5040928;28;19956;-84
2023/05/29 10:38:19;;;;;;;;;;;;;;;32.84;20.57;98361.97;5049713;28;20015;-85
2023/05/29 10:40:45;;;;;;;;;;;;;;;34.27;20.72;98354.34;5054752;28;19917;-84
2023/05/29 10:43:34;;;;;;;;;;;;;;;35.67;19.16;98348.94;5054192;28;19913;-84
2023/05/29 10:46:01;;;;;;;;;;;;;;;36.34;19.62;98344.47;5054539;28;19931;-84
2023/05/29 10:48:30;;;;;;;;;;;;;;;36.11;18.32;98334.97;5054426;28;19920;-84
2023/05/29 10:50:56;;;;;;;;;;;;;;;33.59;21.77;98339.56;5064744;28;20264;-85
2023/05/29 10:53:26;;;;;;;;;;;;;;;34.78;20.44;98344.38;5074555;28;19916;-84
2023/05/29 10:55:53;;;;;;;;;;;;;;;35.07;18.52;98347.84;5073942;28;19920;-84
2023/05/29 10:58:20;;;;;;;;;;;;;;;36.02;18.31;98343.75;5073013;28;20381;-84
2023/05/29 11:00:47;;;;;;;;;;;;;;;35.81;17.88;98348.00;5057500;28;19921;-84
2023/05/29 11:03:22;;;;;;;;;;;;;;;36.11;18.89;98351.38;5069296;28;19925;-84
2023/05/29 11:06:10;;;;;;;;;;;;;;;35.76;18.08;98349.53;5061844;28;19920;-84
2023/05/29 11:08:44;;;;;;;;;;;;;;;36.04;17.52;98347.66;5069038;28;19929;-85
2023/05/29 11:11:14;;;;;;;;;;;;;;;36.71;17.89;98348.78;5072375;28;20317;-84
2023/05/29 11:13:44;;;;;;;;;;;;;;;35.77;18.94;98339.66;5072481;28;19920;-85
2023/05/29 11:16:33;;;;;;;;;;;;;;;36.27;19.09;98342.84;5071811;28;20273;-85
2023/05/29 11:19:03;;;;;;;;;;;;;;;35.83;19.50;98348.25;5066887;28;19945;-84
2023/05/29 11:21:38;;;;;;;;;;;;;;;36.16;18.71;98334.22;5073589;28;19921;-85
2023/05/29 11:24:07;;;;;;;;;;;;;;;36.03;17.64;98340.41;5061439;28;19921;-84
2023/05/29 11:26:34;;;;;;;;;;;;;;;36.60;17.81;98345.91;5084991;28;19920;-85
2023/05/29 11:29:02;;;;;;;;;;;;;;;36.39;18.67;98337.97;5067551;28;19916;-85
2023/05/29 11:31:31;;;;;;;;;;;;;;;35.66;17.97;98338.81;5066102;28;19974;-84
2023/05/29 11:33:59;;;;;;;;;;;;;;;36.26;17.83;98340.50;5073547;28;19978;-84
2023/05/29 11:36:25;;;;;;;;;;;;;;;34.59;20.80;98338.97;5073665;28;20003;-84
2023/05/29 11:38:51;;;;;;;;;;;;;;;35.61;18.12;98336.69;5070493;28;20068;-83
2023/05/29 11:41:17;;;;;;;;;;;;;;;34.72;19.20;98330.06;5067611;28;19913;-83
2023/05/29 11:43:44;;;;;;;;;;;;;;;34.52;18.93;98338.59;5053480;28;20008;-83
2023/05/29 11:46:17;;;;;;;;;;;;;;;34.77;20.25;98331.41;5053743;28;19917;-83
2023/05/29 11:48:47;;;;;;;;;;;;;;;34.05;18.93;98334.88;5054771;28;19921;-83
2023/05/29 11:51:14;;;;;;;;;;;;;;;33.43;20.92;98334.38;5072073;28;19916;-84
2023/05/29 11:53:41;;;;;;;;;;;;;;;33.87;19.88;98331.47;5066689;28;19927;-84
2023/05/29 11:56:08;;;;;;;;;;;;;;;34.55;19.05;98323.38;5068900;28;19920;-83
2023/05/29 11:58:35;;;;;;;;;;;;;;;34.18;19.52;98330.91;5054576;28;20288;-84
2023/05/29 12:01:01;;;;;;;;;;;;;;;35.20;19.26;98319.69;5070895;28;19966;-84
2023/05/29 12:03:27;;;;;;;;;;;;;;;36.06;19.14;98319.34;5064852;28;20008;-84
2023/05/29 12:05:55;;;;;;;;;;;;;;;35.51;19.13;98329.59;5066259;28;19917;-84
2023/05/29 12:08:22;;;;;;;;;;;;;;;35.28;20.43;98320.81;5073040;28;19940;-84
2023/05/29 12:10:49;;;;;;;;;;;;;;;34.53;18.67;98321.03;5065177;28;19970;-84
2023/05/29 12:13:18;;;;;;;;;;;;;;;35.01;17.82;98312.72;5072090;28;19928;-84
2023/05/29 12:15:45;;;;;;;;;;;;;;;35.92;19.14;98313.75;5059348;28;20406;-84
2023/05/29 12:18:11;;;;;;;;;;;;;;;35.80;17.53;98318.63;5070344;28;20497;-84
2023/05/29 12:20:37;;;;;;;;;;;;;;;35.65;18.82;98312.31;5068188;28;19947;-84
2023/05/29 12:23:05;;;;;;;;;;;;;;;36.89;18.85;98301.75;5072820;28;19966;-84
2023/05/29 12:25:33;;;;;;;;;;;;;;;37.10;17.09;98306.00;5068110;28;19960;-84
2023/05/29 12:27:59;;;;;;;;;;;;;;;35.65;18.07;98312.31;5072927;28;19935;-84
2023/05/29 12:30:25;;;;;;;;;;;;;;;35.40;18.44;98304.56;5071598;28;19920;-84
2023/05/29 12:32:52;;;;;;;;;;;;;;;35.58;18.97;98312.78;5045438;28;19925;-85
2023/05/29 12:35:19;;;;;;;;;;;;;;;35.97;17.35;98305.25;5072191;28;20342;-84
2023/05/29 12:37:49;;;;;;;;;;;;;;;34.62;21.21;98300.91;5084583;28;19927;-85
2023/05/29 12:40:16;;;;;;;;;;;;;;;34.06;21.05;98296.56;5065482;28;19920;-83
2023/05/29 12:42:42;;;;;;;;;;;;;;;34.12;18.96;98295.84;5071285;28;19916;-82
2023/05/29 12:45:09;;;;;;;;;;;;;;;34.97;20.50;98288.53;5072533;28;19920;-83
2023/05/29 12:47:35;;;;;;;;;;;;;;;35.60;18.49;98295.91;5068157;28;19923;-83